Time;durP1;ratioP1;P1;durP2;ratioP2;P2;SDS_P1;SDS_P2;PMS_P1;PMS_P2;Temp;Humidity;BMP_temperature;BMP_pressure;BME280_temperature;BME280_humidity;BME280_pressure;Samples;Min_cycle;Max_cycle;Signal;HPM_P1;HPM_P2
2022/01/04 00:01:16;;;;;;;7.10;3.08;;;;;;;7.47;84.57;100167.34;5067617;28;20546;-72
2022/01/04 00:03:43;;;;;;;5.00;2.97;;;;;;;7.47;84.79;100169.97;5094318;28;20031;-73
2022/01/04 00:06:10;;;;;;;5.25;3.97;;;;;;;7.46;85.00;100161.25;5067778;28;20028;-73
2022/01/04 00:08:35;;;;;;;8.65;3.50;;;;;;;7.46;84.80;100155.19;5088184;28;20107;-72
2022/01/04 00:13:42;;;;;;;11.52;3.78;;;;;;;7.45;84.96;100149.09;5091931;28;20527;-73
2022/01/04 00:16:10;;;;;;;10.85;4.72;;;;;;;7.48;84.73;100147.34;5078506;28;20035;-73
2022/01/04 00:18:38;;;;;;;6.50;3.30;;;;;;;7.45;84.75;100135.22;5079691;28;20036;-73
2022/01/04 00:21:06;;;;;;;14.25;4.30;;;;;;;7.47;85.11;100133.47;5071214;28;20132;-73
2022/01/04 00:23:33;;;;;;;6.38;3.78;;;;;;;7.45;85.31;100133.44;5073227;28;20036;-72
2022/01/04 00:25:58;;;;;;;8.32;3.03;;;;;;;7.44;84.85;100126.53;5088657;28;20063;-73
2022/01/04 00:28:25;;;;;;;12.25;3.55;;;;;;;7.46;85.16;100126.50;5075327;28;20134;-73
2022/01/04 00:30:50;;;;;;;5.63;3.30;;;;;;;7.45;84.86;100111.75;5053178;28;20040;-73
2022/01/04 00:33:17;;;;;;;7.65;3.63;;;;;;;7.43;84.72;100114.38;5084989;28;20035;-73
2022/01/04 00:35:43;;;;;;;6.10;3.45;;;;;;;7.44;84.79;100104.78;5087376;28;20047;-73
2022/01/04 00:38:09;;;;;;;6.72;3.67;;;;;;;7.43;84.69;100090.06;5068329;28;20036;-73
2022/01/04 00:40:36;;;;;;;5.28;3.00;;;;;;;7.44;85.02;100089.16;5055880;28;20405;-74
2022/01/04 00:43:01;;;;;;;7.80;3.58;;;;;;;7.41;84.86;100083.97;5068203;28;20040;-73
2022/01/04 00:45:36;;;;;;;5.53;3.05;;;;;;;7.40;84.73;100074.44;5060454;28;20042;-74
2022/01/04 00:50:33;;;;;;;;;;;;;;;7.43;84.31;100071.81;5069787;28;20094;-73
2022/01/04 00:52:59;;;;;;;5.38;3.13;;;;;;;7.36;84.88;100070.16;5086120;28;19957;-73
2022/01/04 00:55:25;;;;;;;7.90;3.70;;;;;;;7.32;85.74;100058.88;5074825;28;20028;-73
2022/01/04 00:57:50;;;;;;;6.03;3.83;;;;;;;7.34;84.99;100069.28;5083333;28;20052;-73
2022/01/04 01:00:19;;;;;;;6.35;3.67;;;;;;;7.31;85.07;100067.56;5069756;28;20040;-73
2022/01/04 01:02:45;;;;;;;7.15;4.28;;;;;;;7.31;85.59;100064.97;5074004;28;20127;-73
2022/01/04 01:05:12;;;;;;;13.45;4.10;;;;;;;7.30;85.31;100055.44;5054257;28;20606;-73
2022/01/04 01:07:38;;;;;;;9.15;5.28;;;;;;;7.31;85.18;100051.06;5071533;28;20421;-74
2022/01/04 01:12:52;;;;;;;10.70;4.85;;;;;;;7.28;85.94;100049.38;5086140;28;20063;-74
2022/01/04 01:15:18;;;;;;;9.00;4.03;;;;;;;7.27;85.99;100050.25;5065661;28;20063;-73
2022/01/04 01:17:46;;;;;;;11.55;4.45;;;;;;;7.25;85.63;100045.03;5081901;28;20032;-73
2022/01/04 01:20:13;;;;;;;6.50;4.47;;;;;;;7.24;85.69;100051.16;5071336;28;20032;-73
2022/01/04 01:22:40;;;;;;;8.95;4.38;;;;;;;7.21;85.86;100045.97;5049359;28;20040;-73
2022/01/04 01:25:06;;;;;;;6.93;4.50;;;;;;;7.21;85.66;100037.28;5083481;28;20388;-73
2022/01/04 01:27:32;;;;;;;8.38;4.55;;;;;;;7.18;86.00;100035.56;5078917;28;20044;-73
2022/01/04 01:30:00;;;;;;;8.02;4.47;;;;;;;7.19;86.03;100033.84;5074976;28;20036;-73
2022/01/04 01:32:25;;;;;;;9.18;4.70;;;;;;;7.18;85.71;100030.34;5038255;28;20040;-73
2022/01/04 01:34:50;;;;;;;10.95;5.07;;;;;;;7.17;85.52;100026.03;5039205;28;20032;-73
2022/01/04 01:37:16;;;;;;;12.68;5.15;;;;;;;7.17;85.92;100027.75;5041145;28;20070;-73
2022/01/04 01:39:41;;;;;;;5.03;4.03;;;;;;;7.15;86.62;100030.38;5046531;28;20032;-73
2022/01/04 01:42:07;;;;;;;13.35;5.32;;;;;;;7.15;86.25;100025.19;5063550;28;20040;-73
2022/01/04 01:44:35;;;;;;;9.13;4.50;;;;;;;7.14;85.84;100013.06;5065302;28;20152;-73
2022/01/04 01:47:00;;;;;;;8.20;4.78;;;;;;;7.14;86.05;100006.97;5070991;28;20032;-73
2022/01/04 01:49:28;;;;;;;8.82;4.25;;;;;;;7.14;85.71;100005.25;5085744;28;20396;-73
2022/01/04 01:51:54;;;;;;;7.80;4.20;;;;;;;7.13;85.95;100006.09;5058397;28;20051;-73
2022/01/04 01:54:20;;;;;;;8.93;4.65;;;;;;;7.13;86.08;99995.69;5075059;28;20036;-73
2022/01/04 01:56:46;;;;;;;7.80;4.97;;;;;;;7.15;86.03;99990.47;5052004;28;20059;-72
2022/01/04 01:59:15;;;;;;;9.30;4.80;;;;;;;7.13;86.52;99995.69;5074915;28;20173;-73
2022/01/04 02:01:40;;;;;;;5.47;4.45;;;;;;;7.11;86.07;99998.31;5077994;28;20079;-73
2022/01/04 02:04:06;;;;;;;13.48;5.10;;;;;;;7.11;85.97;100000.03;5073999;28;20454;-73
2022/01/04 02:06:31;;;;;;;6.50;4.28;;;;;;;7.10;86.50;100001.78;5078984;28;20039;-73
2022/01/04 02:09:00;;;;;;;10.63;5.18;;;;;;;7.10;86.56;99991.38;5074807;28;20040;-73
2022/01/04 02:11:30;;;;;;;8.63;4.80;;;;;;;7.09;85.99;99988.78;5075214;28;20083;-73
2022/01/04 02:14:00;;;;;;;9.48;4.85;;;;;;;7.10;86.40;99980.09;5047500;28;20361;-74
2022/01/04 02:16:27;;;;;;;15.67;5.83;;;;;;;7.08;85.81;99974.03;5066370;28;20029;-73
2022/01/04 02:19:06;;;;;;;9.40;5.53;;;;;;;7.07;86.64;99974.91;5067642;28;20059;-73
2022/01/04 02:21:35;;;;;;;15.85;5.30;;;;;;;7.04;86.09;99965.41;5062466;28;20036;-74
2022/01/04 02:24:02;;;;;;;14.00;5.55;;;;;;;7.03;85.66;99953.25;5069231;28;20055;-72
2022/01/04 02:26:32;;;;;;;12.20;6.43;;;;;;;7.05;86.77;99961.91;5070850;28;20048;-73
2022/01/04 02:28:58;;;;;;;11.88;6.05;;;;;;;7.04;86.06;99954.97;5069704;28;21140;-73
2022/01/04 02:31:24;;;;;;;9.20;6.53;;;;;;;7.01;85.98;99952.41;5067787;28;20082;-73
2022/01/04 02:33:50;;;;;;;11.85;5.78;;;;;;;7.01;86.26;99951.53;5051261;28;20133;-74
2022/01/04 02:36:16;;;;;;;7.22;5.60;;;;;;;7.02;85.77;99955.88;5069812;28;20496;-73
2022/01/04 02:38:41;;;;;;;8.68;5.55;;;;;;;7.01;86.15;99943.72;5034341;28;20036;-74
2022/01/04 02:41:09;;;;;;;9.25;5.55;;;;;;;6.99;86.01;99951.53;5034580;28;20040;-73
2022/01/04 02:43:35;;;;;;;8.50;5.65;;;;;;;6.99;86.08;99946.34;5038788;28;20085;-73
2022/01/04 02:46:01;;;;;;;9.70;5.78;;;;;;;6.99;86.23;99948.09;5074524;28;20032;-73
2022/01/04 02:48:27;;;;;;;11.68;5.90;;;;;;;6.98;86.12;99938.53;5025386;28;20026;-73
2022/01/04 02:50:52;;;;;;;10.73;5.40;;;;;;;6.98;85.97;99936.78;5033279;28;20120;-72
2022/01/04 02:53:18;;;;;;;11.88;6.05;;;;;;;6.96;85.72;99922.94;5045409;28;20028;-73
2022/01/04 02:55:45;;;;;;;8.10;5.70;;;;;;;6.95;86.22;99923.81;5071813;28;20115;-73
2022/01/04 02:58:11;;;;;;;9.88;6.53;;;;;;;6.93;86.14;99921.22;5068490;28;20068;-73
2022/01/04 03:00:37;;;;;;;9.75;6.35;;;;;;;6.93;86.08;99916.00;5069898;28;20505;-74
2022/01/04 03:03:02;;;;;;;9.02;6.57;;;;;;;6.91;86.28;99915.19;5058709;28;20044;-73
2022/01/04 03:05:28;;;;;;;9.60;5.93;;;;;;;6.93;86.13;99915.16;5067138;28;20028;-73
2022/01/04 03:07:53;;;;;;;8.27;6.00;;;;;;;6.90;86.28;99895.22;5065262;28;20024;-73
2022/01/04 03:10:21;;;;;;;12.32;6.32;;;;;;;6.90;85.80;99895.22;5039666;28;20021;-73
2022/01/04 03:12:49;;;;;;;8.10;5.97;;;;;;;6.91;86.55;99896.94;5068303;28;20042;-73
2022/01/04 03:15:17;;;;;;;9.80;5.95;;;;;;;6.90;85.73;99899.56;5067020;28;20031;-73
2022/01/04 03:17:45;;;;;;;7.70;5.53;;;;;;;6.90;85.70;99895.22;5049820;28;20056;-73
2022/01/04 03:20:11;;;;;;;7.30;5.57;;;;;;;6.90;85.77;99887.41;5081123;28;20028;-73
2022/01/04 03:22:36;;;;;;;12.07;6.05;;;;;;;6.88;86.01;99872.66;5079812;28;20849;-73
2022/01/04 03:25:03;;;;;;;9.88;5.70;;;;;;;6.89;86.03;99874.41;5047841;28;20519;-73
2022/01/04 03:27:29;;;;;;;7.82;5.38;;;;;;;6.87;85.72;99860.56;5051299;28;20110;-73
2022/01/04 03:29:54;;;;;;;13.20;6.22;;;;;;;6.87;86.19;99858.78;5050614;28;20503;-74
2022/01/04 03:32:20;;;;;;;7.60;5.78;;;;;;;6.87;86.17;99855.34;5055035;28;20040;-73
2022/01/04 03:34:45;;;;;;;10.45;5.82;;;;;;;6.86;86.04;99851.00;5051494;28;20028;-74
2022/01/04 03:37:11;;;;;;;11.55;5.80;;;;;;;6.85;85.41;99838.84;5045149;28;20040;-73
2022/01/04 03:39:36;;;;;;;7.72;4.75;;;;;;;6.84;85.92;99832.78;5039449;28;20032;-73
2022/01/04 03:42:03;;;;;;;9.30;5.03;;;;;;;6.84;86.33;99824.09;5031707;28;20066;-73
2022/01/04 03:44:29;;;;;;;7.32;5.30;;;;;;;6.82;86.14;99824.13;5065599;28;20097;-73
2022/01/04 03:46:55;;;;;;;6.40;5.47;;;;;;;6.82;85.30;99818.06;5068412;28;20427;-73
2022/01/04 03:49:22;;;;;;;6.65;5.25;;;;;;;6.81;85.58;99804.19;5058822;28;20111;-73
2022/01/04 03:51:49;;;;;;;7.03;4.65;;;;;;;6.80;85.76;99799.84;5072184;28;20021;-73
2022/01/04 03:54:15;;;;;;;7.90;4.85;;;;;;;6.80;85.67;99797.25;5042328;28;20031;-74
2022/01/04 03:56:41;;;;;;;9.57;4.38;;;;;;;6.79;85.33;99792.91;5045322;28;20051;-73
2022/01/04 03:59:06;;;;;;;7.20;4.75;;;;;;;6.78;85.93;99787.72;5065011;28;20420;-72
2022/01/04 04:01:32;;;;;;;7.07;4.72;;;;;;;6.78;85.92;99785.13;5068068;28;20062;-73
2022/01/04 04:03:57;;;;;;;8.88;5.20;;;;;;;6.78;86.04;99788.63;5051240;28;20041;-72
2022/01/04 04:06:23;;;;;;;6.35;4.82;;;;;;;6.76;86.21;99777.34;5035045;28;20036;-72
2022/01/04 04:08:49;;;;;;;9.10;5.18;;;;;;;6.80;86.06;99778.19;5035110;28;20039;-73
2022/01/04 04:11:14;;;;;;;6.78;5.40;;;;;;;6.76;85.81;99765.16;5046058;28;20050;-74
2022/01/04 04:13:40;;;;;;;4.90;4.20;;;;;;;6.77;85.36;99763.44;5057782;28;20119;-72
2022/01/04 04:16:05;;;;;;;7.82;5.13;;;;;;;6.74;86.29;99766.09;5050134;28;20522;-73
2022/01/04 04:18:31;;;;;;;8.98;5.07;;;;;;;6.75;86.57;99771.28;5057053;28;20131;-74
2022/01/04 04:20:56;;;;;;;9.30;5.15;;;;;;;6.75;86.47;99760.00;5068025;28;20469;-73
2022/01/04 04:23:22;;;;;;;6.15;4.63;;;;;;;6.74;86.46;99753.94;5058323;28;20434;-73
2022/01/04 04:25:50;;;;;;;5.72;5.07;;;;;;;6.73;86.74;99748.75;5054444;28;20029;-72
2022/01/04 04:28:15;;;;;;;8.10;5.53;;;;;;;6.74;86.62;99737.47;5033211;28;20033;-73
2022/01/04 04:30:43;;;;;;;9.75;5.30;;;;;;;6.74;86.10;99742.66;5034475;28;20036;-72
2022/01/04 04:33:09;;;;;;;13.93;5.60;;;;;;;6.73;86.31;99736.56;5078302;28;20136;-74
2022/01/04 04:35:34;;;;;;;7.35;5.53;;;;;;;6.73;86.15;99744.38;5033053;28;20427;-73
2022/01/04 04:38:02;;;;;;;8.68;5.43;;;;;;;6.73;86.20;99738.34;5039584;28;20040;-73
2022/01/04 04:40:27;;;;;;;12.52;6.60;;;;;;;6.73;86.07;99746.16;5041953;28;20045;-73
2022/01/04 04:42:53;;;;;;;8.25;5.05;;;;;;;6.74;86.48;99734.84;5035368;28;20427;-73
2022/01/04 04:45:19;;;;;;;12.07;6.55;;;;;;;6.73;85.72;99733.97;5073026;28;20067;-73
2022/01/04 04:47:44;;;;;;;12.52;5.95;;;;;;;6.73;86.21;99738.34;5072701;28;20383;-74
2022/01/04 04:50:10;;;;;;;9.80;5.68;;;;;;;6.73;86.50;99736.56;5055912;28;20040;-73
2022/01/04 04:52:35;;;;;;;9.40;6.40;;;;;;;6.73;86.55;99739.19;5042407;28;20081;-73
2022/01/04 04:55:02;;;;;;;14.38;7.10;;;;;;;6.73;86.18;99735.72;5072676;28;20055;-73
2022/01/04 04:57:28;;;;;;;13.18;7.05;;;;;;;6.73;86.88;99740.94;5046804;28;20048;-73
2022/01/04 04:59:53;;;;;;;8.30;6.63;;;;;;;6.73;86.38;99740.94;5059103;28;20409;-74
2022/01/04 05:02:18;;;;;;;10.38;6.30;;;;;;;6.72;86.49;99744.41;5070243;28;20024;-74
2022/01/04 05:04:44;;;;;;;10.57;5.80;;;;;;;6.71;86.62;99738.34;5059416;28;20032;-74
2022/01/04 05:07:09;;;;;;;7.97;5.80;;;;;;;6.73;86.93;99735.72;5054987;28;20038;-73
2022/01/04 05:09:36;;;;;;;7.40;5.88;;;;;;;6.73;87.14;99735.72;5039135;28;20032;-74
2022/01/04 05:12:01;;;;;;;12.10;6.13;;;;;;;6.72;86.67;99728.78;5050188;28;20035;-74
2022/01/04 05:14:27;;;;;;;15.07;6.07;;;;;;;6.71;86.12;99725.34;5063374;28;20036;-74
2022/01/04 05:16:52;;;;;;;7.85;5.88;;;;;;;6.72;86.20;99736.59;5048647;28;20033;-74
2022/01/04 05:19:19;;;;;;;12.23;6.15;;;;;;;6.71;86.06;99727.06;5072148;28;20024;-74
2022/01/04 05:21:44;;;;;;;9.63;5.88;;;;;;;6.70;86.03;99715.81;5057432;28;20021;-74
2022/01/04 05:24:11;;;;;;;8.32;5.82;;;;;;;6.70;86.75;99717.56;5067817;28;20499;-73
2022/01/04 05:26:37;;;;;;;7.80;5.82;;;;;;;6.70;86.44;99720.16;5060796;28;20127;-74
2022/01/04 05:29:02;;;;;;;13.65;6.35;;;;;;;6.70;86.30;99707.97;5048103;28;20285;-73
2022/01/04 05:31:28;;;;;;;11.35;6.43;;;;;;;6.70;86.15;99705.38;5049205;28;20048;-73
2022/01/04 05:33:54;;;;;;;8.40;6.40;;;;;;;6.70;86.43;99714.94;5070649;28;20048;-74
2022/01/04 05:36:19;;;;;;;8.68;5.97;;;;;;;6.68;86.20;99706.28;5056293;28;20036;-74
2022/01/04 05:38:47;;;;;;;8.68;5.88;;;;;;;6.70;86.07;99699.31;5038820;28;20119;-73
2022/01/04 05:41:12;;;;;;;12.73;7.35;;;;;;;6.70;86.68;99696.72;5055570;28;20033;-74
2022/01/04 05:43:40;;;;;;;12.75;6.90;;;;;;;6.71;86.47;99688.00;5051909;28;20036;-74
2022/01/04 05:46:05;;;;;;;11.20;7.38;;;;;;;6.69;86.18;99672.41;5052128;28;20032;-73
2022/01/04 05:48:31;;;;;;;8.95;6.32;;;;;;;6.68;86.99;99675.91;5063152;28;20082;-74
2022/01/04 05:50:56;;;;;;;10.68;8.55;;;;;;;6.65;86.95;99669.88;5068812;28;20034;-72
2022/01/04 05:53:25;;;;;;;11.90;7.95;;;;;;;6.64;87.16;99670.75;5071416;28;20023;-73
2022/01/04 05:55:50;;;;;;;12.80;8.57;;;;;;;6.59;87.21;99660.41;5085973;28;20055;-73
2022/01/04 05:58:18;;;;;;;9.40;7.82;;;;;;;6.57;88.27;99662.19;5055294;28;20138;-73
2022/01/04 06:00:44;;;;;;;11.23;7.18;;;;;;;6.56;88.29;99670.88;5027274;28;20043;-73
2022/01/04 06:03:09;;;;;;;8.60;6.55;;;;;;;6.54;88.15;99672.66;5058449;28;20033;-74
2022/01/04 06:05:35;;;;;;;10.35;6.72;;;;;;;6.53;88.44;99666.56;5029897;28;20029;-74
2022/01/04 06:08:00;;;;;;;9.45;6.78;;;;;;;6.52;88.32;99664.00;5072382;28;20388;-74
2022/01/04 06:10:26;;;;;;;10.13;7.60;;;;;;;6.50;87.98;99664.00;5041277;28;20069;-73
2022/01/04 06:15:19;;;;;;;7.90;7.10;;;;;;;6.50;88.14;99656.22;5073386;28;20044;-73
2022/01/04 06:17:49;;;;;;;12.88;8.10;;;;;;;6.49;88.17;99651.88;5045760;28;20039;-74
2022/01/04 06:20:21;;;;;;;12.82;7.47;;;;;;;6.50;88.08;99657.97;5082010;28;20032;-73
2022/01/04 06:22:49;;;;;;;9.60;7.07;;;;;;;6.50;88.54;99651.00;5060423;28;20017;-72
2022/01/04 06:25:17;;;;;;;9.73;7.13;;;;;;;6.50;88.76;99652.75;5031936;28;20032;-72
2022/01/04 06:27:44;;;;;;;9.95;7.15;;;;;;;6.50;88.93;99651.00;5075518;28;20365;-73
2022/01/04 06:30:11;;;;;;;12.52;8.77;;;;;;;6.49;88.94;99641.47;5084019;28;20024;-72
2022/01/04 06:32:39;;;;;;;11.18;8.10;;;;;;;6.50;88.61;99645.78;5047688;28;20035;-72
2022/01/04 06:35:05;;;;;;;11.65;9.05;;;;;;;6.48;88.77;99642.38;5041712;28;20028;-72
2022/01/04 06:37:32;;;;;;;10.27;8.88;;;;;;;6.50;88.92;99655.34;5049128;28;20052;-73
2022/01/04 06:39:59;;;;;;;11.27;9.20;;;;;;;6.51;89.39;99655.34;5039433;28;20016;-72
2022/01/04 06:42:27;;;;;;;11.13;8.52;;;;;;;6.50;88.99;99655.34;5033191;28;20043;-74
2022/01/04 06:44:53;;;;;;;12.68;8.77;;;;;;;6.49;88.42;99649.28;5039059;28;20389;-75
2022/01/04 06:47:18;;;;;;;11.23;8.82;;;;;;;6.51;88.50;99652.72;5038795;28;20036;-73
2022/01/04 06:49:43;;;;;;;15.00;9.00;;;;;;;6.51;88.69;99657.94;5090722;28;20031;-74
2022/01/04 06:52:09;;;;;;;17.48;9.63;;;;;;;6.51;89.33;99647.53;5065004;28;20032;-72
2022/01/04 06:54:35;;;;;;;20.58;10.00;;;;;;;6.49;88.95;99633.66;5063786;28;20025;-74
2022/01/04 06:57:00;;;;;;;15.75;10.23;;;;;;;6.48;88.63;99625.88;5066462;28;20086;-74
2022/01/04 06:59:26;;;;;;;13.77;9.73;;;;;;;6.46;88.63;99620.69;5039601;28;20478;-73
2022/01/04 07:01:51;;;;;;;14.07;9.35;;;;;;;6.47;88.92;99624.19;5051230;28;20413;-74
2022/01/04 07:04:17;;;;;;;14.25;9.32;;;;;;;6.46;88.86;99615.50;5048872;28;20086;-73
2022/01/04 07:06:42;;;;;;;12.32;9.43;;;;;;;6.45;89.00;99616.41;5065717;28;20028;-73
2022/01/04 07:09:08;;;;;;;12.15;10.10;;;;;;;6.46;88.73;99617.25;5051929;28;20418;-74
2022/01/04 07:11:34;;;;;;;15.32;10.82;;;;;;;6.44;89.27;99625.06;5058754;28;20081;-73
2022/01/04 07:14:01;;;;;;;19.58;10.75;;;;;;;6.44;89.34;99614.66;5060657;28;20032;-73
2022/01/04 07:16:26;;;;;;;15.63;9.65;;;;;;;6.45;89.25;99611.19;5067099;28;20040;-73
2022/01/04 07:18:52;;;;;;;15.80;9.93;;;;;;;6.44;89.25;99599.06;5083438;28;20048;-73
2022/01/04 07:21:21;;;;;;;12.40;9.32;;;;;;;6.45;89.17;99610.31;5074995;28;20028;-73
2022/01/04 07:23:48;;;;;;;13.20;10.88;;;;;;;6.45;89.36;99616.41;5071182;28;20019;-73
2022/01/04 07:26:15;;;;;;;13.50;9.80;;;;;;;6.44;89.11;99608.56;5069052;28;20143;-74
2022/01/04 07:28:42;;;;;;;16.88;11.40;;;;;;;6.44;88.99;99609.47;5040934;28;20145;-74
2022/01/04 07:31:08;;;;;;;20.20;12.23;;;;;;;6.44;89.56;99591.25;5047633;28;20029;-73
2022/01/04 07:33:34;;;;;;;13.85;11.23;;;;;;;6.44;89.26;99585.16;5070146;28;20028;-73
2022/01/04 07:35:59;;;;;;;14.10;10.95;;;;;;;6.42;89.31;99574.78;5068499;28;20500;-73
2022/01/04 07:38:25;;;;;;;16.60;11.85;;;;;;;6.43;89.49;99566.09;5068320;28;20059;-73
2022/01/04 07:40:50;;;;;;;13.80;11.65;;;;;;;6.42;89.19;99564.38;5043581;28;20036;-73
2022/01/04 07:43:16;;;;;;;19.67;12.52;;;;;;;6.42;89.74;99569.56;5046986;28;20025;-74
2022/01/04 07:45:42;;;;;;;17.08;12.02;;;;;;;6.40;89.03;99558.34;5035548;28;20135;-73
2022/01/04 07:48:10;;;;;;;15.07;11.38;;;;;;;6.40;89.63;99561.78;5068170;28;20047;-73
2022/01/04 07:50:42;;;;;;;16.08;11.30;;;;;;;6.40;89.58;99568.75;5049591;28;20366;-74
2022/01/04 07:53:08;;;;;;;15.43;11.98;;;;;;;6.39;89.94;99567.91;5045679;28;20060;-74
2022/01/04 07:55:34;;;;;;;19.05;11.30;;;;;;;6.40;89.80;99576.56;5065788;28;20040;-73
2022/01/04 07:58:00;;;;;;;17.70;12.02;;;;;;;6.40;89.06;99587.81;5063994;28;20131;-73
2022/01/04 08:00:26;;;;;;;16.65;12.65;;;;;;;6.41;89.04;99588.69;5045872;28;20116;-73
2022/01/04 08:02:56;;;;;;;16.95;13.65;;;;;;;6.41;89.03;99589.53;5048357;28;20492;-73
2022/01/04 08:05:23;;;;;;;16.52;12.25;;;;;;;6.44;89.62;99590.34;5046923;28;20017;-73
2022/01/04 08:07:50;;;;;;;16.05;11.05;;;;;;;6.43;89.79;99586.91;5036134;28;20028;-73
2022/01/04 08:10:16;;;;;;;17.73;12.38;;;;;;;6.44;89.78;99583.44;5049293;28;20037;-73
2022/01/04 08:12:42;;;;;;;21.17;11.82;;;;;;;6.44;89.40;99570.44;5046486;28;20033;-73
2022/01/04 08:15:08;;;;;;;18.08;12.40;;;;;;;6.44;89.69;99575.63;5043089;28;20477;-73
2022/01/04 08:17:36;;;;;;;19.25;12.13;;;;;;;6.47;89.34;99579.94;5041042;28;20041;-73
2022/01/04 08:20:03;;;;;;;16.83;12.45;;;;;;;6.46;89.55;99570.41;5067433;28;20024;-73
2022/01/04 08:22:32;;;;;;;17.83;13.73;;;;;;;6.47;89.29;99574.72;5072105;28;20110;-73
2022/01/04 08:25:02;;;;;;;15.73;11.60;;;;;;;6.48;89.94;99579.91;5056668;28;20537;-73
2022/01/04 08:27:29;;;;;;;16.33;12.45;;;;;;;6.48;89.68;99579.91;5073086;28;20032;-72
2022/01/04 08:29:55;;;;;;;24.65;14.00;;;;;;;6.50;89.21;99579.88;5071801;28;20032;-72
2022/01/04 08:32:21;;;;;;;20.23;12.85;;;;;;;6.50;90.03;99572.94;5071906;28;20067;-72
2022/01/04 08:34:47;;;;;;;17.75;14.13;;;;;;;6.53;89.16;99577.22;5055620;28;20071;-72
2022/01/04 08:37:13;;;;;;;19.02;14.00;;;;;;;6.52;89.65;99578.97;5069539;28;20032;-72
2022/01/04 08:39:38;;;;;;;23.45;14.73;;;;;;;6.54;89.69;99585.00;5044652;28;20047;-72
2022/01/04 08:42:04;;;;;;;20.25;14.85;;;;;;;6.55;89.38;99591.06;5056165;28;20498;-72
2022/01/04 08:44:30;;;;;;;29.63;14.55;;;;;;;6.54;89.59;99586.75;5071345;28;20484;-72
2022/01/04 08:46:56;;;;;;;25.38;16.13;;;;;;;6.55;89.46;99591.94;5071824;28;20389;-72
2022/01/04 08:49:24;;;;;;;22.73;15.43;;;;;;;6.57;89.57;99613.59;5040213;28;20028;-72
2022/01/04 08:51:50;;;;;;;22.42;14.90;;;;;;;6.57;89.16;99615.34;5058037;28;20032;-72
2022/01/04 08:54:15;;;;;;;21.10;15.65;;;;;;;6.57;89.39;99616.19;5039300;28;20469;-72
2022/01/04 08:56:41;;;;;;;21.80;16.25;;;;;;;6.58;88.59;99617.06;5073041;28;20052;-73
2022/01/04 08:59:08;;;;;;;27.73;16.42;;;;;;;6.58;89.23;99622.28;5071440;28;20108;-73
2022/01/04 09:01:35;;;;;;;24.17;16.23;;;;;;;6.59;89.65;99624.84;5056563;28;20043;-72
2022/01/04 09:04:01;;;;;;;20.02;15.57;;;;;;;6.61;88.84;99616.16;5044746;28;20105;-72
2022/01/04 09:06:29;;;;;;;24.95;16.25;;;;;;;6.62;89.32;99620.47;5034415;28;20066;-72
2022/01/04 09:08:56;;;;;;;23.92;16.00;;;;;;;6.64;89.36;99610.88;5059952;28;20385;-72
2022/01/04 09:11:25;;;;;;;27.83;17.33;;;;;;;6.67;89.38;99603.06;5051237;28;20071;-72
2022/01/04 09:14:06;;;;;;;26.33;17.42;;;;;;;6.69;89.04;99609.09;5049671;28;20036;-72
2022/01/04 09:19:16;;;;;;;28.65;16.85;;;;;;;6.71;89.58;99596.88;5064363;28;20327;-72
2022/01/04 09:21:42;;;;;;;28.40;17.45;;;;;;;6.73;89.15;99595.13;5035443;28;20033;-72
2022/01/04 09:24:07;;;;;;;25.55;16.55;;;;;;;6.74;88.84;99592.50;5052462;28;20021;-72
2022/01/04 09:26:33;;;;;;;23.10;16.42;;;;;;;6.77;89.12;99596.81;5039011;28;20039;-72
2022/01/04 09:28:58;;;;;;;18.98;15.63;;;;;;;6.80;88.71;99593.31;5029267;28;20032;-72
2022/01/04 09:31:26;;;;;;;29.65;16.75;;;;;;;6.81;88.65;99606.28;5049180;28;20039;-72
2022/01/04 09:33:53;;;;;;;21.33;15.80;;;;;;;6.82;88.76;99610.59;5070196;28;20415;-72
2022/01/04 09:36:19;;;;;;;24.83;16.05;;;;;;;6.82;88.41;99621.00;5070929;28;20064;-72
2022/01/04 09:38:44;;;;;;;21.33;16.55;;;;;;;6.85;88.84;99631.41;5031777;28;20060;-73
2022/01/04 09:41:10;;;;;;;26.52;17.38;;;;;;;6.86;88.73;99627.03;5071264;28;20476;-73
2022/01/04 09:43:36;;;;;;;26.20;17.60;;;;;;;6.85;89.03;99621.00;5071393;28;20032;-73
2022/01/04 09:46:01;;;;;;;23.08;16.80;;;;;;;6.87;88.94;99615.75;5039003;28;20033;-72
2022/01/04 09:48:29;;;;;;;33.85;19.75;;;;;;;6.87;89.11;99619.22;5070947;28;20437;-73
2022/01/04 09:50:57;;;;;;;28.40;18.98;;;;;;;6.87;88.38;99621.81;5045229;28;20063;-73
2022/01/04 09:53:24;;;;;;;34.25;19.55;;;;;;;6.87;88.61;99616.59;5079628;28;20035;-73
2022/01/04 09:55:51;;;;;;;28.35;17.30;;;;;;;6.88;87.55;99630.47;5065472;28;20039;-72
2022/01/04 09:58:19;;;;;;;31.92;21.05;;;;;;;6.88;88.86;99620.94;5049221;28;20068;-73
2022/01/04 10:00:45;;;;;;;27.33;20.23;;;;;;;6.90;88.58;99613.09;5063300;28;20029;-73
2022/01/04 10:03:29;;;;;;;30.08;18.65;;;;;;;6.93;88.32;99613.88;5047662;28;20035;-73
2022/01/04 10:06:16;;;;;;;26.55;18.65;;;;;;;6.93;88.60;99606.06;5070006;28;20157;-73
2022/01/04 10:08:55;;;;;;;30.40;20.25;;;;;;;6.97;88.37;99619.03;5053359;28;20093;-73
2022/01/04 10:11:30;;;;;;;32.08;22.63;;;;;;;6.94;88.10;99606.97;5059427;28;20029;-73
2022/01/04 10:13:56;;;;;;;31.42;22.40;;;;;;;6.94;87.90;99609.56;5069397;28;20051;-73
2022/01/04 10:16:22;;;;;;;32.53;22.77;;;;;;;6.99;88.46;99609.47;5038109;28;20036;-73
2022/01/04 10:18:48;;;;;;;39.33;24.67;;;;;;;6.99;88.34;99601.66;5035942;28;20555;-73
2022/01/04 10:21:15;;;;;;;39.05;23.05;;;;;;;7.02;88.22;99586.81;5033998;28;20029;-73
2022/01/04 10:24:10;;;;;;;34.05;24.05;;;;;;;7.07;88.19;99584.16;5066520;28;20101;-73
2022/01/04 10:26:37;;;;;;;35.90;22.90;;;;;;;7.08;88.22;99578.03;5040708;28;20047;-73
2022/01/04 10:29:23;;;;;;;35.75;24.50;;;;;;;7.11;87.85;99580.59;5036575;28;20062;-73
2022/01/04 10:31:48;;;;;;;36.22;24.08;;;;;;;7.10;87.57;99573.69;5043744;28;20052;-73
2022/01/04 10:34:14;;;;;;;43.95;26.27;;;;;;;7.11;87.66;99571.06;5046103;28;20040;-72
2022/01/04 10:36:40;;;;;;;35.50;24.23;;;;;;;7.14;87.25;99572.75;5070415;28;20098;-73
2022/01/04 10:39:11;;;;;;;38.95;23.67;;;;;;;7.18;87.87;99568.31;5059768;28;20087;-73
2022/01/04 10:41:37;;;;;;;37.90;24.45;;;;;;;7.22;88.19;99572.59;5051094;28;20051;-72
2022/01/04 10:44:10;;;;;;;36.28;24.52;;;;;;;7.28;87.88;99565.53;5033442;28;20538;-73
2022/01/04 10:46:35;;;;;;;37.28;25.65;;;;;;;7.34;87.24;99555.88;5053042;28;20035;-72
2022/01/04 10:49:15;;;;;;;48.97;27.38;;;;;;;7.39;87.49;99574.91;5069721;28;20029;-73
2022/01/04 10:51:41;;;;;;;41.92;27.20;;;;;;;7.44;87.46;99576.53;5069930;28;20082;-73
2022/01/04 10:54:07;;;;;;;42.45;24.63;;;;;;;7.45;87.38;99566.94;5068233;28;20036;-73
2022/01/04 10:56:35;;;;;;;39.20;25.80;;;;;;;7.46;87.60;99563.47;5069468;28;20149;-73
2022/01/04 10:59:05;;;;;;;31.35;25.08;;;;;;;7.45;86.55;99565.19;5067694;28;20148;-72
2022/01/04 11:01:39;;;;;;;33.30;23.88;;;;;;;7.44;86.75;99573.91;5068227;28;20046;-73
2022/01/04 11:04:11;;;;;;;37.70;25.55;;;;;;;7.42;86.67;99570.47;5063361;28;20043;-72
2022/01/04 11:06:38;;;;;;;41.08;25.65;;;;;;;7.41;86.81;99578.31;5063899;28;20381;-73
2022/01/04 11:09:05;;;;;;;37.50;26.23;;;;;;;7.43;86.64;99573.94;5067689;28;20439;-72
2022/01/04 11:11:31;;;;;;;37.85;23.30;;;;;;;7.43;87.25;99576.56;5069439;28;20434;-73
2022/01/04 11:13:57;;;;;;;39.08;25.05;;;;;;;7.44;86.85;99571.31;5069024;28;20054;-73
2022/01/04 11:16:24;;;;;;;39.83;25.33;;;;;;;7.43;86.80;99566.97;5069447;28;20032;-73
2022/01/04 11:18:52;;;;;;;34.88;24.45;;;;;;;7.44;86.77;99562.63;5070236;28;20024;-73
2022/01/04 11:21:24;;;;;;;34.35;23.83;;;;;;;7.45;86.51;99559.13;5069722;28;20052;-73
2022/01/04 11:23:51;;;;;;;34.47;25.33;;;;;;;7.45;86.48;99553.91;5070423;28;20024;-73
2022/01/04 11:26:20;;;;;;;42.33;23.88;;;;;;;7.47;86.28;99562.59;5068251;28;20024;-73
2022/01/04 11:28:48;;;;;;;42.72;26.70;;;;;;;7.48;86.56;99568.66;5068950;28;20032;-73
2022/01/04 11:31:25;;;;;;;36.85;25.73;;;;;;;7.48;87.08;99574.69;5070014;28;20036;-73
2022/01/04 11:34:14;;;;;;;34.80;24.95;;;;;;;7.46;87.29;99587.78;5069992;28;20024;-72
2022/01/04 11:36:42;;;;;;;39.20;26.63;;;;;;;7.40;87.36;99577.47;5071305;28;20032;-72
2022/01/04 11:39:30;;;;;;;40.28;26.33;;;;;;;7.39;87.34;99578.34;5065817;28;20025;-72
2022/01/04 11:41:56;;;;;;;39.65;27.77;;;;;;;7.31;88.13;99592.41;5067774;28;20024;-72
2022/01/04 11:44:26;;;;;;;17.10;8.18;;;;;;;7.08;84.16;99596.28;5053632;28;20063;-73